createdAt,value
2019-05-29T00:01:37.401Z,2.87
2019-05-29T00:07:43.285Z,4.30
2019-05-29T00:13:49.281Z,1.87
2019-05-29T00:19:55.162Z,2.30
2019-05-29T00:26:01.525Z,2.47
2019-05-29T00:32:08.820Z,1.93
2019-05-29T00:38:14.960Z,1.97
2019-05-29T00:44:33.455Z,3.37
2019-05-29T00:50:28.205Z,2.10
2019-05-29T00:56:33.970Z,4.20
2019-05-29T01:02:39.720Z,3.83
2019-05-29T01:08:45.683Z,2.53
2019-05-29T01:14:51.547Z,2.77
2019-05-29T01:20:57.358Z,4.37
2019-05-29T01:27:03.193Z,4.33
2019-05-29T01:33:09.209Z,5.10
2019-05-29T01:39:15.253Z,4.27
2019-05-29T01:45:21.523Z,3.03
2019-05-29T01:51:28.047Z,3.53
2019-05-29T01:57:33.967Z,3.67
2019-05-29T02:03:39.759Z,4.10
2019-05-29T02:09:46.327Z,3.80
2019-05-29T02:15:52.047Z,4.00
2019-05-29T02:21:58.543Z,4.37
2019-05-29T02:28:04.285Z,5.23
2019-05-29T02:34:10.257Z,5.03
2019-05-29T02:40:16.513Z,4.63
2019-05-29T02:46:26.437Z,4.20
2019-05-29T02:52:33.155Z,4.87
2019-05-29T02:58:39.186Z,4.87
2019-05-29T03:04:45.198Z,4.77
2019-05-29T03:10:51.265Z,6.47
2019-05-29T03:16:57.623Z,4.37
2019-05-29T03:23:03.447Z,5.07
2019-05-29T03:29:09.335Z,5.03
2019-05-29T03:35:15.273Z,4.87
2019-05-29T03:41:21.142Z,5.43
2019-05-29T03:47:28.675Z,4.77
2019-05-29T03:53:37.726Z,4.73
2019-05-29T03:59:42.895Z,5.47
2019-05-29T04:05:48.625Z,5.97
2019-05-29T04:11:54.618Z,4.57
2019-05-29T04:18:01.708Z,5.37
2019-05-29T04:24:09.419Z,5.13
2019-05-29T04:30:16.263Z,4.87
2019-05-29T04:36:22.490Z,5.20
2019-05-29T04:42:29.611Z,4.80
2019-05-29T04:48:39.754Z,4.63
2019-05-29T04:54:43.908Z,5.40
2019-05-29T05:00:59.090Z,4.93
2019-05-29T05:06:58.456Z,4.30
2019-05-29T05:13:05.328Z,5.10
2019-05-29T05:19:11.089Z,5.87
2019-05-29T05:25:16.938Z,5.30
2019-05-29T05:31:23.361Z,5.13
2019-05-29T05:37:30.537Z,5.60
2019-05-29T05:43:36.942Z,6.27
2019-05-29T05:49:42.879Z,5.33
2019-05-29T05:55:48.618Z,4.83
2019-05-29T06:01:54.464Z,4.43
2019-05-29T06:08:01.211Z,3.50
2019-05-29T06:14:07.161Z,3.90
2019-05-29T06:20:14.275Z,1.63
2019-05-29T06:26:20.057Z,3.90
2019-05-29T06:32:25.821Z,2.37
2019-05-29T06:38:31.563Z,3.37
2019-05-29T06:44:39.398Z,2.70
2019-05-29T06:50:45.060Z,2.97
2019-05-29T06:56:51.572Z,3.37
2019-05-29T07:02:57.329Z,1.70
2019-05-29T07:09:04.057Z,1.93
2019-05-29T07:15:10.244Z,1.83
2019-05-29T07:21:16.310Z,2.77
2019-05-29T07:27:22.075Z,2.37
2019-05-29T07:33:27.991Z,3.03
2019-05-29T07:39:34.016Z,3.67
2019-05-29T07:45:40.605Z,1.30
2019-05-29T07:51:48.841Z,4.03
2019-05-29T07:57:54.841Z,1.83
2019-05-29T08:04:00.661Z,3.60
2019-05-29T08:10:07.598Z,1.60
2019-05-29T08:16:13.353Z,1.90
2019-05-29T08:22:33.669Z,1.40
2019-05-29T08:28:27.666Z,2.73
2019-05-29T08:34:33.866Z,1.97
2019-05-29T08:40:40.967Z,2.70
2019-05-29T08:47:06.468Z,1.40
2019-05-29T08:52:55.175Z,4.00
2019-05-29T08:59:00.917Z,1.77
2019-05-29T09:05:08.204Z,1.63
2019-05-29T09:11:13.989Z,1.53
2019-05-29T09:17:20.121Z,4.90
2019-05-29T09:23:25.849Z,4.20
2019-05-29T09:29:31.757Z,1.30
2019-05-29T09:35:37.462Z,4.00
2019-05-29T09:41:43.319Z,2.13
2019-05-29T09:47:49.139Z,1.53
2019-05-29T09:53:57.254Z,1.93
2019-05-29T10:00:04.031Z,1.40
2019-05-29T10:06:11.005Z,1.40
2019-05-29T10:12:16.856Z,1.93
2019-05-29T10:18:32.083Z,1.63
2019-05-29T10:24:32.509Z,1.80
2019-05-29T10:30:38.200Z,1.50
2019-05-29T10:36:49.901Z,1.60
2019-05-29T10:42:53.893Z,1.47
2019-05-29T10:48:59.904Z,2.40
2019-05-29T10:55:06.491Z,1.47
2019-05-29T11:01:12.797Z,1.50
2019-05-29T11:07:19.085Z,1.67
2019-05-29T11:13:25.075Z,2.83
2019-05-29T11:19:31.632Z,2.27
2019-05-29T11:25:45.480Z,1.60
2019-05-29T11:31:53.463Z,1.43
2019-05-29T11:38:00.516Z,2.40
2019-05-29T11:44:08.111Z,0.90
2019-05-29T11:50:19.569Z,1.80
2019-05-29T11:56:22.920Z,1.80
2019-05-29T12:02:28.720Z,2.40
2019-05-29T12:08:34.504Z,1.33
2019-05-29T12:14:58.824Z,1.90
2019-05-29T12:20:48.391Z,3.40
2019-05-29T12:26:54.537Z,2.07
2019-05-29T12:33:01.162Z,1.90
2019-05-29T12:39:09.041Z,1.20
2019-05-29T12:45:15.171Z,1.30
2019-05-29T12:51:20.960Z,1.20
2019-05-29T12:57:26.819Z,1.77
2019-05-29T13:03:32.594Z,4.37
2019-05-29T13:09:39.326Z,1.17
2019-05-29T13:15:45.256Z,2.57
2019-05-29T13:21:51.417Z,1.80
2019-05-29T13:27:59.872Z,1.73
2019-05-29T13:34:07.151Z,1.30
2019-05-29T13:40:13.797Z,1.97
2019-05-29T13:46:19.954Z,1.00
2019-05-29T13:52:26.411Z,1.10
2019-05-29T13:58:32.402Z,0.80
2019-05-29T14:04:38.633Z,1.27
2019-05-29T14:10:44.705Z,1.00
2019-05-29T14:16:50.933Z,1.43
2019-05-29T14:22:57.045Z,1.40
2019-05-29T14:29:03.527Z,1.27
2019-05-29T14:35:11.153Z,2.15
2019-05-29T14:41:18.158Z,1.93
2019-05-29T14:47:24.512Z,1.30
2019-05-29T14:53:31.454Z,1.10
2019-05-29T14:59:38.217Z,1.40
2019-05-29T15:05:45.028Z,1.70
2019-05-29T15:11:51.819Z,1.50
2019-05-29T15:18:02.903Z,1.83
2019-05-29T15:24:09.856Z,1.47
2019-05-29T15:30:22.291Z,1.90
2019-05-29T15:36:24.264Z,2.40
2019-05-29T15:42:30.539Z,1.97
2019-05-29T15:48:36.717Z,2.03
2019-05-29T15:54:43.269Z,3.87
2019-05-29T16:00:50.034Z,4.10
2019-05-29T16:06:56.402Z,1.73
2019-05-29T16:13:02.773Z,1.10
2019-05-29T16:19:10.043Z,1.43
2019-05-29T16:25:16.970Z,1.47
2019-05-29T16:31:23.543Z,1.53
2019-05-29T16:37:30.652Z,1.90
2019-05-29T16:43:37.217Z,1.90
2019-05-29T16:49:43.532Z,2.40
2019-05-29T16:55:53.868Z,2.77
2019-05-29T17:01:58.392Z,5.10
2019-05-29T17:08:04.659Z,2.80
2019-05-29T17:14:10.770Z,5.47
2019-05-29T17:20:22.779Z,1.50
2019-05-29T17:26:28.969Z,0.80
2019-05-29T17:32:35.250Z,0.80
2019-05-29T17:38:41.478Z,2.08
2019-05-29T17:44:48.220Z,1.85
2019-05-29T17:50:56.686Z,0.90
2019-05-29T17:57:02.940Z,0.83
2019-05-29T18:03:09.148Z,2.07
2019-05-29T18:09:15.093Z,4.60
2019-05-29T18:15:21.690Z,1.87
2019-05-29T18:21:28.072Z,2.37
2019-05-29T18:27:35.330Z,1.90
2019-05-29T18:33:41.413Z,1.20
2019-05-29T18:39:47.665Z,3.07
2019-05-29T18:45:53.491Z,3.60
2019-05-29T18:52:00.572Z,2.13
2019-05-29T18:58:07.044Z,1.70
2019-05-29T19:04:12.952Z,1.00
2019-05-29T19:10:19.486Z,1.30
2019-05-29T19:16:26.345Z,1.20
2019-05-29T19:22:32.781Z,2.63
2019-05-29T19:28:38.672Z,1.00
2019-05-29T19:34:44.843Z,0.80
2019-05-29T19:40:50.961Z,1.03
2019-05-29T19:46:57.146Z,0.90
2019-05-29T19:53:03.334Z,1.00
2019-05-29T19:59:09.192Z,2.77
2019-05-29T20:05:15.428Z,3.07
2019-05-29T20:11:21.282Z,2.83
2019-05-29T20:17:27.949Z,1.83
2019-05-29T20:23:34.621Z,1.17
2019-05-29T20:29:42.638Z,1.30
2019-05-29T20:35:48.669Z,2.33
2019-05-29T20:41:54.797Z,2.20
2019-05-29T20:48:00.800Z,3.63
2019-05-29T20:54:07.094Z,1.60
2019-05-29T21:00:15.017Z,2.70
2019-05-29T21:06:23.670Z,3.03
2019-05-29T21:12:29.944Z,1.67
2019-05-29T21:18:36.022Z,1.37
2019-05-29T21:24:55.339Z,3.53
2019-05-29T21:30:50.395Z,2.60
2019-05-29T21:36:57.429Z,2.40
2019-05-29T21:43:04.169Z,2.40
2019-05-29T21:49:10.180Z,1.80
2019-05-29T21:55:16.327Z,1.77
2019-05-29T22:01:22.361Z,2.30
2019-05-29T22:07:28.393Z,2.13
2019-05-29T22:13:34.369Z,4.07
2019-05-29T22:19:40.358Z,2.40
2019-05-29T22:25:46.434Z,2.30
2019-05-29T22:31:53.365Z,3.17
2019-05-29T22:38:00.123Z,7.13
2019-05-29T22:44:06.520Z,2.67
2019-05-29T22:50:12.540Z,2.40
2019-05-29T22:56:18.643Z,4.27
2019-05-29T23:02:24.930Z,3.00
2019-05-29T23:08:31.392Z,4.00
2019-05-29T23:14:37.299Z,2.60
2019-05-29T23:20:43.502Z,3.13
2019-05-29T23:26:49.351Z,2.60
2019-05-29T23:32:55.150Z,3.00
2019-05-29T23:39:01.436Z,3.03
2019-05-29T23:45:07.865Z,3.80
2019-05-29T23:51:13.979Z,3.10
2019-05-29T23:57:19.901Z,3.70
